テグシガルパ の空港の天気 - METARとTAF

トンコンティン国際空港 ( MHTG / TGU ) - ホンジュラス テグシガルパ
飛行場実況気象(Metar)
観測時間07/12 16:00 CST (07/12 22:00 UTC)
風向・風速北北東 5m/s
視程10km以上
天気現象
全天の4割程度の雲 雲底高度 910m
少しの雲 雲底高度 980m
気温27℃
湿度66%
気圧1017hPa
METARMHTG 122200Z 03010KT 9999 SCT030TCU FEW032CB 27/20 Q1017 A3003
過去の天気等 Google飛行場航空写真 Wunderground天気予報

過去48時間のMETAR

飛行場予報(TAF)
発表時間: 7/12 10:05 CST (7/12 16:05 UTC)
予報対象時間: 12日12時 CST ~ 13日12時 CST
風向・風速東北東 4m/s
視程10km以上
全天の4割程度の塔状積雲 雲底高度 910m
全天の4割程度の雲 雲底高度 2740m
12日15時 CST ~ 12日21時 CST に 確率 30% で一時的に
視程7000m
天気現象周辺でしゅう雨
全天の4割程度の塔状積雲 雲底高度 850m
全天の4割程度の雲 雲底高度 2440m
12日21時 CST ~ 12日23時 CST に徐々に
風向・風速北北東 3m/s
視程10km以上
天気現象運行に影響にある天気現象が終了
少しの雲 雲底高度 850m
全天の4割程度の雲 雲底高度 2130m
13日3時 CST ~ 13日5時 CST に徐々に
視程7000m
少しの雲 雲底高度 240m
全天の4割程度の雲 雲底高度 790m
13日9時 CST ~ 17日11時 CST に徐々に
視程10km以上
全天の4割程度の塔状積雲 雲底高度 910m
全天の4割程度の雲 雲底高度 2740m
TAF MHTG 121605Z 1218/1318 07008KT 9999 SCT030TCU SCT090 TX29/1219Z TN19/1312Z
PROB30 TEMPO 1221/1303 7000 VCSH SCT028TCU SCT080
BECMG 1303/1305 02005KT 9999 NSW FEW028 SCT070
BECMG 1309/1311 7000 FEW008 SCT026
BECMG 1315/1717 9999 SCT030TCU SCT090